Time;durP1;ratioP1;P1;durP2;ratioP2;P2;SDS_P1;SDS_P2;PMS_P1;PMS_P2;Temp;Humidity;BMP_temperature;BMP_pressure;BME280_temperature;BME280_humidity;BME280_pressure;Samples;Min_cycle;Max_cycle;Signal;HPM_P1;HPM_P2
2022/11/13 00:01:25;;;;;;;5.10;2.40;;;;;;;;;;5063060;28;20047;-64
2022/11/13 00:03:52;;;;;;;4.53;2.20;;;;;;;;;;5076512;28;20045;-64
2022/11/13 00:06:18;;;;;;;5.45;2.17;;;;;;;;;;5077666;28;20043;-70
2022/11/13 00:08:45;;;;;;;4.25;2.00;;;;;;;;;;5082669;28;20032;-64
2022/11/13 00:11:17;;;;;;;5.45;2.28;;;;;;;;;;5081881;28;20041;-64
2022/11/13 00:13:44;;;;;;;5.63;2.42;;;;;;;;;;5082615;28;20504;-64
2022/11/13 00:16:11;;;;;;;4.38;1.90;;;;;;;;;;5063375;28;20488;-65
2022/11/13 00:18:38;;;;;;;5.63;2.30;;;;;;;;;;5083534;28;20516;-66
2022/11/13 00:21:06;;;;;;;4.70;2.10;;;;;;;;;;5084340;28;20059;-63
2022/11/13 00:23:33;;;;;;;3.83;1.73;;;;;;;;;;5083635;28;20032;-65
2022/11/13 00:26:07;;;;;;;5.30;1.80;;;;;;;;;;5079731;28;20050;-65
2022/11/13 00:28:33;;;;;;;3.45;1.52;;;;;;;;;;5083759;28;20078;-63
2022/11/13 00:31:01;;;;;;;4.03;1.70;;;;;;;;;;5083199;28;20032;-64
2022/11/13 00:33:28;;;;;;;3.53;1.50;;;;;;;;;;5084433;27;20379;-65
2022/11/13 00:35:54;;;;;;;4.07;1.45;;;;;;;;;;5088012;28;20907;-65
2022/11/13 00:38:21;;;;;;;4.78;1.60;;;;;;;;;;5072247;28;20192;-64
2022/11/13 00:40:47;;;;;;;4.45;1.73;;;;;;;;;;5069117;28;20051;-67
2022/11/13 00:43:14;;;;;;;4.15;1.50;;;;;;;;;;5072510;28;20067;-64
2022/11/13 00:45:41;;;;;;;4.65;1.80;;;;;;;;;;5087714;28;20035;-65
2022/11/13 00:48:07;;;;;;;3.63;1.70;;;;;;;;;;5089385;28;20130;-65
2022/11/13 00:50:34;;;;;;;4.65;1.60;;;;;;;;;;5088717;28;20039;-65
2022/11/13 00:53:00;;;;;;;3.72;1.40;;;;;;;;;;5087505;28;20040;-64
2022/11/13 00:55:27;;;;;;;3.38;1.60;;;;;;;;;;5088711;27;20044;-65
2022/11/13 00:57:54;;;;;;;3.83;1.40;;;;;;;;;;5087326;28;20131;-66
2022/11/13 01:00:20;;;;;;;4.40;1.50;;;;;;;;;;5086827;27;20032;-65
2022/11/13 01:02:47;;;;;;;3.65;1.40;;;;;;;;;;5087257;28;20211;-64
2022/11/13 01:05:14;;;;;;;3.80;1.58;;;;;;;;;;5087568;27;20047;-65
2022/11/13 01:07:40;;;;;;;3.17;1.30;;;;;;;;;;5073752;28;20412;-66
2022/11/13 01:10:08;;;;;;;4.15;1.67;;;;;;;;;;5088201;28;20051;-64
2022/11/13 01:12:34;;;;;;;4.18;1.60;;;;;;;;;;5087215;28;20160;-65
2022/11/13 01:15:01;;;;;;;3.38;1.17;;;;;;;;;;5086951;28;20028;-65
2022/11/13 01:17:27;;;;;;;3.65;1.50;;;;;;;;;;5088401;28;20046;-65
2022/11/13 01:19:54;;;;;;;3.72;1.42;;;;;;;;;;5088320;28;20477;-65
2022/11/13 01:22:21;;;;;;;4.65;1.52;;;;;;;;;;5086951;28;20040;-66
2022/11/13 01:24:47;;;;;;;4.00;1.60;;;;;;;;;;5087726;27;20035;-63
2022/11/13 01:27:14;;;;;;;3.78;1.38;;;;;;;;;;5087941;28;20040;-64
2022/11/13 01:29:41;;;;;;;4.22;1.73;;;;;;;;;;5087007;27;20082;-64
2022/11/13 01:32:08;;;;;;;6.32;2.05;;;;;;;;;;5087686;28;20044;-65
2022/11/13 01:34:35;;;;;;;4.90;1.50;;;;;;;;;;5086091;28;20108;-64
2022/11/13 01:37:01;;;;;;;4.20;1.80;;;;;;;;;;5067149;28;20119;-64
2022/11/13 01:39:28;;;;;;;4.18;1.85;;;;;;;;;;5087650;28;20574;-66
2022/11/13 01:41:55;;;;;;;4.80;1.60;;;;;;;;;;5087788;28;20059;-64
2022/11/13 01:44:21;;;;;;;4.15;1.90;;;;;;;;;;5082449;28;20051;-63
2022/11/13 01:46:50;;;;;;;3.80;1.70;;;;;;;;;;5087887;28;20275;-65
2022/11/13 01:49:20;;;;;;;4.88;1.70;;;;;;;;;;5089085;28;20039;-64
2022/11/13 01:51:52;;;;;;;3.55;1.40;;;;;;;;;;5066893;28;20427;-65
2022/11/13 01:54:21;;;;;;;4.07;1.67;;;;;;;;;;5085956;28;20067;-64
2022/11/13 01:56:49;;;;;;;4.15;1.50;;;;;;;;;;5098650;27;20036;-64
2022/11/13 01:59:18;;;;;;;3.53;1.50;;;;;;;;;;5088274;28;20977;-65
2022/11/13 02:01:45;;;;;;;4.32;1.70;;;;;;;;;;5086320;28;20458;-65
2022/11/13 02:04:11;;;;;;;4.28;1.63;;;;;;;;;;5064561;28;20059;-64
2022/11/13 02:06:45;;;;;;;3.72;1.48;;;;;;;;;;5067405;28;20046;-62
2022/11/13 02:09:12;;;;;;;2.80;1.33;;;;;;;;;;5088205;28;20039;-65
2022/11/13 02:11:39;;;;;;;3.95;1.20;;;;;;;;;;5064990;28;20123;-63
2022/11/13 02:14:06;;;;;;;3.63;1.60;;;;;;;;;;5080660;28;20039;-65
2022/11/13 02:16:34;;;;;;;3.55;1.27;;;;;;;;;;5088587;27;20059;-64
2022/11/13 02:19:02;;;;;;;3.53;1.20;;;;;;;;;;5087816;28;20404;-64
2022/11/13 02:21:38;;;;;;;3.63;1.40;;;;;;;;;;5087596;28;20058;-63
2022/11/13 02:24:31;;;;;;;3.03;1.15;;;;;;;;;;5080776;28;20503;-64
2022/11/13 02:27:00;;;;;;;4.18;1.33;;;;;;;;;;5084336;28;20522;-64
2022/11/13 02:29:27;;;;;;;3.45;1.00;;;;;;;;;;5087093;28;20051;-62
2022/11/13 02:31:54;;;;;;;6.15;1.40;;;;;;;;;;5088772;28;20036;-68
2022/11/13 02:34:21;;;;;;;3.70;1.25;;;;;;;;;;5068138;28;20090;-66
2022/11/13 02:36:48;;;;;;;3.15;1.30;;;;;;;;;;5084650;28;20109;-64
2022/11/13 02:39:14;;;;;;;5.65;1.40;;;;;;;;;;5086728;28;20062;-65
2022/11/13 02:41:44;;;;;;;4.38;1.20;;;;;;;;;;5082019;28;20051;-65
2022/11/13 02:44:10;;;;;;;3.55;1.23;;;;;;;;;;5085389;28;20073;-65
2022/11/13 02:46:37;;;;;;;4.15;1.50;;;;;;;;;;5083808;28;20039;-65
2022/11/13 02:49:04;;;;;;;3.47;1.55;;;;;;;;;;5084348;28;20036;-66
2022/11/13 02:51:31;;;;;;;5.15;1.30;;;;;;;;;;5070879;28;20407;-66
2022/11/13 02:53:57;;;;;;;3.67;1.40;;;;;;;;;;5084265;28;20472;-65
2022/11/13 02:56:24;;;;;;;3.97;1.52;;;;;;;;;;5084164;27;20032;-65
2022/11/13 02:58:50;;;;;;;4.15;1.38;;;;;;;;;;5083883;28;20032;-65
2022/11/13 03:01:17;;;;;;;3.83;1.40;;;;;;;;;;5085894;28;20146;-65
2022/11/13 03:03:44;;;;;;;4.32;1.52;;;;;;;;;;5082376;28;20043;-65
2022/11/13 03:06:11;;;;;;;4.00;1.50;;;;;;;;;;5086266;28;20040;-63
2022/11/13 03:08:37;;;;;;;4.07;1.52;;;;;;;;;;5063400;28;20043;-64
2022/11/13 03:11:10;;;;;;;3.85;1.50;;;;;;;;;;5085247;27;20123;-64
2022/11/13 03:13:37;;;;;;;3.72;1.20;;;;;;;;;;5083813;28;20048;-66
2022/11/13 03:16:22;;;;;;;6.63;1.75;;;;;;;;;;5084609;28;20041;-64
2022/11/13 03:18:49;;;;;;;2.88;1.17;;;;;;;;;;5082672;28;20039;-65
2022/11/13 03:21:16;;;;;;;3.55;1.55;;;;;;;;;;5082487;28;20047;-64
2022/11/13 03:23:46;;;;;;;3.78;1.63;;;;;;;;;;5081983;28;20036;-63
2022/11/13 03:26:15;;;;;;;4.28;1.80;;;;;;;;;;5084143;28;20054;-62
2022/11/13 03:28:42;;;;;;;3.88;1.45;;;;;;;;;;5083332;28;20062;-62
2022/11/13 03:31:08;;;;;;;3.50;1.70;;;;;;;;;;5084187;28;20187;-66
2022/11/13 03:33:35;;;;;;;4.43;1.70;;;;;;;;;;5062213;28;20051;-64
2022/11/13 03:36:02;;;;;;;3.65;1.58;;;;;;;;;;5063344;28;20055;-64
2022/11/13 03:38:28;;;;;;;3.75;1.50;;;;;;;;;;5083908;28;20082;-65
2022/11/13 03:40:55;;;;;;;3.58;1.42;;;;;;;;;;5083337;27;20051;-65
2022/11/13 03:43:22;;;;;;;3.55;1.60;;;;;;;;;;5063386;28;20486;-64
2022/11/13 03:45:48;;;;;;;4.30;1.63;;;;;;;;;;5064057;28;20498;-66
2022/11/13 03:48:15;;;;;;;3.25;1.40;;;;;;;;;;5065992;28;20036;-64
2022/11/13 03:50:43;;;;;;;4.60;1.65;;;;;;;;;;5084835;28;20158;-64
2022/11/13 03:53:10;;;;;;;4.72;1.95;;;;;;;;;;5085113;28;20035;-65
2022/11/13 03:55:36;;;;;;;5.72;1.52;;;;;;;;;;5086800;28;20039;-64
2022/11/13 03:58:03;;;;;;;4.45;1.50;;;;;;;;;;5085947;28;20040;-63
2022/11/13 04:00:30;;;;;;;3.88;1.65;;;;;;;;;;5088189;28;20429;-63
2022/11/13 04:02:56;;;;;;;3.90;1.42;;;;;;;;;;5085036;28;20037;-63
2022/11/13 04:05:23;;;;;;;3.13;1.33;;;;;;;;;;5086247;28;20058;-64
2022/11/13 04:07:50;;;;;;;3.97;1.60;;;;;;;;;;5056717;28;20814;-64
2022/11/13 04:10:16;;;;;;;5.57;1.75;;;;;;;;;;5084915;28;20036;-62
2022/11/13 04:12:43;;;;;;;4.43;1.77;;;;;;;;;;5086037;28;20089;-64
2022/11/13 04:15:10;;;;;;;3.28;1.52;;;;;;;;;;5065685;28;20050;-63
2022/11/13 04:17:36;;;;;;;3.40;1.50;;;;;;;;;;5087151;28;20558;-63
2022/11/13 04:20:03;;;;;;;4.43;1.60;;;;;;;;;;5085350;28;20103;-64
2022/11/13 04:22:30;;;;;;;3.42;1.65;;;;;;;;;;5065415;28;20055;-63
2022/11/13 04:24:56;;;;;;;3.70;1.40;;;;;;;;;;5086520;28;20028;-63
2022/11/13 04:27:23;;;;;;;3.63;1.60;;;;;;;;;;5085130;28;20039;-63
2022/11/13 04:29:50;;;;;;;3.22;1.30;;;;;;;;;;5085989;28;20553;-63
2022/11/13 04:32:16;;;;;;;4.90;1.55;;;;;;;;;;5084349;28;20027;-64
2022/11/13 04:34:43;;;;;;;4.10;1.70;;;;;;;;;;5078593;28;20028;-65
2022/11/13 04:37:09;;;;;;;3.70;1.55;;;;;;;;;;5085371;28;20039;-66
2022/11/13 04:39:36;;;;;;;3.78;1.40;;;;;;;;;;5085907;28;20561;-64
2022/11/13 04:44:48;;;;;;;2.90;1.38;;;;;;;;;;5086243;28;20191;-64
2022/11/13 04:47:14;;;;;;;3.80;1.70;;;;;;;;;;5085217;28;20016;-64
2022/11/13 04:49:41;;;;;;;4.00;1.55;;;;;;;;;;5085182;28;20035;-65
2022/11/13 04:52:08;;;;;;;4.47;1.15;;;;;;;;;;5084951;28;20028;-64
2022/11/13 04:54:34;;;;;;;4.03;1.67;;;;;;;;;;5084383;28;20043;-63
2022/11/13 04:57:01;;;;;;;4.32;1.40;;;;;;;;;;5085155;28;20031;-64
2022/11/13 04:59:27;;;;;;;3.65;1.42;;;;;;;;;;5084742;28;20146;-64
2022/11/13 05:01:54;;;;;;;4.60;1.33;;;;;;;;;;5083426;28;20044;-64
2022/11/13 05:04:21;;;;;;;4.03;1.40;;;;;;;;;;5083375;28;20040;-65
2022/11/13 05:06:47;;;;;;;3.25;1.20;;;;;;;;;;5085952;28;20475;-64
2022/11/13 05:09:14;;;;;;;2.75;1.20;;;;;;;;;;5083570;28;20050;-64
2022/11/13 05:11:41;;;;;;;2.70;1.02;;;;;;;;;;5085281;28;20375;-64
2022/11/13 05:14:10;;;;;;;4.72;1.20;;;;;;;;;;5084296;28;20028;-63
2022/11/13 05:16:37;;;;;;;3.28;1.23;;;;;;;;;;5085034;28;20065;-65
2022/11/13 05:19:07;;;;;;;3.08;1.05;;;;;;;;;;5084993;28;20134;-64
2022/11/13 05:21:34;;;;;;;2.85;1.20;;;;;;;;;;5087505;28;20063;-63
2022/11/13 05:24:01;;;;;;;3.65;1.23;;;;;;;;;;5089478;28;20045;-64
2022/11/13 05:26:28;;;;;;;3.80;1.30;;;;;;;;;;5084777;28;20023;-63
2022/11/13 05:28:58;;;;;;;3.38;1.13;;;;;;;;;;5089829;28;20028;-64
2022/11/13 05:31:24;;;;;;;4.60;1.00;;;;;;;;;;5073762;28;20039;-65
2022/11/13 05:33:51;;;;;;;2.90;1.10;;;;;;;;;;5087177;28;20039;-64
2022/11/13 05:36:18;;;;;;;4.32;1.17;;;;;;;;;;5089083;28;20068;-63
2022/11/13 05:38:45;;;;;;;3.30;1.25;;;;;;;;;;5087625;28;20444;-64
2022/11/13 05:41:14;;;;;;;3.10;1.23;;;;;;;;;;5087695;28;20054;-63
2022/11/13 05:43:41;;;;;;;2.88;1.13;;;;;;;;;;5087293;28;20818;-65
2022/11/13 05:46:07;;;;;;;3.50;1.20;;;;;;;;;;5086970;28;20237;-63
2022/11/13 05:48:34;;;;;;;4.40;1.20;;;;;;;;;;5088685;28;20028;-63
2022/11/13 05:51:09;;;;;;;4.03;1.20;;;;;;;;;;5087801;28;20052;-64
2022/11/13 05:53:36;;;;;;;3.15;1.08;;;;;;;;;;5088860;28;20055;-64
2022/11/13 05:56:08;;;;;;;4.63;1.40;;;;;;;;;;5046695;28;20036;-64
2022/11/13 05:58:35;;;;;;;4.15;1.50;;;;;;;;;;5091656;28;20555;-62
2022/11/13 06:01:12;;;;;;;3.83;1.23;;;;;;;;;;5089459;28;20371;-64
2022/11/13 06:03:39;;;;;;;3.78;1.60;;;;;;;;;;5088226;28;20716;-64
2022/11/13 06:06:10;;;;;;;3.67;1.42;;;;;;;;;;5086295;28;20106;-65
2022/11/13 06:08:37;;;;;;;4.13;1.60;;;;;;;;;;5088894;28;20039;-65
2022/11/13 06:11:09;;;;;;;4.75;1.48;;;;;;;;;;5087974;28;20036;-65
2022/11/13 06:13:36;;;;;;;5.20;1.60;;;;;;;;;;5087394;28;20027;-64
2022/11/13 06:16:06;;;;;;;6.55;1.95;;;;;;;;;;5086057;28;20028;-66
2022/11/13 06:18:33;;;;;;;4.63;1.85;;;;;;;;;;5088609;28;20052;-64
2022/11/13 06:21:04;;;;;;;6.82;1.70;;;;;;;;;;5088874;28;20067;-64
2022/11/13 06:23:34;;;;;;;4.07;1.75;;;;;;;;;;5089114;28;20036;-64
2022/11/13 06:26:02;;;;;;;4.43;1.92;;;;;;;;;;5087527;28;20027;-63
2022/11/13 06:28:28;;;;;;;4.25;1.92;;;;;;;;;;5089489;28;20036;-64
2022/11/13 06:30:55;;;;;;;5.60;1.90;;;;;;;;;;5074441;28;20305;-67
2022/11/13 06:33:22;;;;;;;5.20;2.22;;;;;;;;;;5068489;28;20046;-63
2022/11/13 06:35:48;;;;;;;4.47;2.20;;;;;;;;;;5068198;28;20047;-65
2022/11/13 06:38:15;;;;;;;4.22;1.83;;;;;;;;;;5086319;28;20565;-64
2022/11/13 06:40:41;;;;;;;4.00;1.83;;;;;;;;;;5085807;28;20027;-65
2022/11/13 06:43:08;;;;;;;3.40;1.70;;;;;;;;;;5073056;28;20503;-63
2022/11/13 06:45:35;;;;;;;4.80;2.03;;;;;;;;;;5086873;28;20395;-65
2022/11/13 06:48:01;;;;;;;5.22;1.88;;;;;;;;;;5086360;28;20083;-65
2022/11/13 06:50:28;;;;;;;3.67;1.75;;;;;;;;;;5087421;28;20024;-66
2022/11/13 06:52:55;;;;;;;4.85;2.00;;;;;;;;;;5079210;28;20028;-66
2022/11/13 06:55:21;;;;;;;4.05;1.55;;;;;;;;;;5079775;28;20032;-65
2022/11/13 06:57:48;;;;;;;4.18;2.08;;;;;;;;;;5085079;28;20059;-65
2022/11/13 07:00:15;;;;;;;3.85;1.75;;;;;;;;;;5082168;28;20040;-65
2022/11/13 07:02:41;;;;;;;4.32;1.73;;;;;;;;;;5083462;28;20068;-65
2022/11/13 07:05:08;;;;;;;5.28;2.20;;;;;;;;;;5084099;28;20028;-65
2022/11/13 07:07:34;;;;;;;4.22;1.90;;;;;;;;;;5084088;28;20513;-67
2022/11/13 07:10:01;;;;;;;4.45;2.10;;;;;;;;;;5084051;28;20096;-65
2022/11/13 07:12:28;;;;;;;4.25;2.00;;;;;;;;;;5082364;28;20152;-65
2022/11/13 07:14:54;;;;;;;6.63;2.40;;;;;;;;;;5086022;28;20035;-66
2022/11/13 07:17:21;;;;;;;4.55;1.90;;;;;;;;;;5084305;28;20031;-65
2022/11/13 07:19:47;;;;;;;5.93;2.47;;;;;;;;;;5084199;27;20408;-65
2022/11/13 07:22:14;;;;;;;4.32;2.00;;;;;;;;;;5084217;28;20046;-65
2022/11/13 07:24:41;;;;;;;4.78;2.17;;;;;;;;;;5084971;28;20047;-65
2022/11/13 07:27:08;;;;;;;5.40;2.20;;;;;;;;;;5085648;28;20047;-65
2022/11/13 07:29:35;;;;;;;4.22;2.05;;;;;;;;;;5084083;27;20184;-65
2022/11/13 07:32:02;;;;;;;5.13;2.25;;;;;;;;;;5085282;28;20973;-65
2022/11/13 07:34:28;;;;;;;5.78;2.42;;;;;;;;;;5081882;28;20096;-65
2022/11/13 07:36:55;;;;;;;6.07;2.88;;;;;;;;;;5085720;28;20036;-65
2022/11/13 07:39:21;;;;;;;7.03;2.60;;;;;;;;;;5082170;27;20047;-65
2022/11/13 07:41:48;;;;;;;5.88;2.58;;;;;;;;;;5083443;28;20055;-65
2022/11/13 07:44:14;;;;;;;4.55;2.03;;;;;;;;;;5083934;28;20035;-64
2022/11/13 07:46:41;;;;;;;5.43;2.40;;;;;;;;;;5081890;27;20043;-65
2022/11/13 07:49:08;;;;;;;6.15;2.42;;;;;;;;;;5084165;28;20036;-64
2022/11/13 07:51:34;;;;;;;5.63;2.50;;;;;;;;;;5082375;28;20039;-65
2022/11/13 07:54:01;;;;;;;6.20;2.05;;;;;;;;;;5082911;28;20515;-65
2022/11/13 07:56:27;;;;;;;4.53;2.20;;;;;;;;;;5082200;27;20032;-65
2022/11/13 07:58:54;;;;;;;4.95;2.33;;;;;;;;;;5083946;28;20048;-65
2022/11/13 08:01:20;;;;;;;6.45;2.60;;;;;;;;;;5082531;28;20048;-66
2022/11/13 08:03:47;;;;;;;4.70;2.38;;;;;;;;;;5083540;28;20042;-65
2022/11/13 08:06:14;;;;;;;6.38;2.60;;;;;;;;;;5084336;28;20370;-65
2022/11/13 08:08:40;;;;;;;5.03;2.50;;;;;;;;;;5082355;28;20044;-65
2022/11/13 08:11:08;;;;;;;4.85;2.47;;;;;;;;;;5085012;28;20174;-65
2022/11/13 08:13:35;;;;;;;5.28;2.40;;;;;;;;;;5082654;28;20201;-65
2022/11/13 08:16:02;;;;;;;5.72;2.83;;;;;;;;;;5084510;27;20398;-65
2022/11/13 08:18:30;;;;;;;7.03;2.55;;;;;;;;;;5082504;28;20901;-65
2022/11/13 08:20:57;;;;;;;5.55;2.65;;;;;;;;;;5083719;27;20104;-64
2022/11/13 08:23:23;;;;;;;7.63;2.53;;;;;;;;;;5081334;28;20143;-65
2022/11/13 08:25:50;;;;;;;6.65;2.83;;;;;;;;;;5084900;28;20043;-63
2022/11/13 08:28:16;;;;;;;6.85;2.47;;;;;;;;;;5084550;28;20039;-63
2022/11/13 08:30:44;;;;;;;5.60;3.00;;;;;;;;;;5083344;28;20082;-64
2022/11/13 08:33:11;;;;;;;6.43;2.80;;;;;;;;;;5083183;28;21777;-64
2022/11/13 08:35:37;;;;;;;5.78;2.83;;;;;;;;;;5083098;28;20040;-64
2022/11/13 08:38:05;;;;;;;6.35;3.08;;;;;;;;;;5083139;28;20100;-65
2022/11/13 08:40:31;;;;;;;8.43;3.30;;;;;;;;;;5083422;28;20043;-65
2022/11/13 08:42:59;;;;;;;7.82;4.07;;;;;;;;;;5083725;28;20051;-66
2022/11/13 08:45:26;;;;;;;7.13;3.78;;;;;;;;;;5083205;28;20757;-64
2022/11/13 08:47:52;;;;;;;8.18;4.18;;;;;;;;;;5082397;28;20039;-62
2022/11/13 08:50:19;;;;;;;10.00;4.95;;;;;;;;;;5084165;28;20040;-63
2022/11/13 08:52:45;;;;;;;10.13;5.50;;;;;;;;;;5085046;28;20032;-65
2022/11/13 08:55:12;;;;;;;11.48;5.78;;;;;;;;;;5086614;28;20069;-64
2022/11/13 08:57:39;;;;;;;11.27;6.00;;;;;;;;;;5085318;28;20672;-64
2022/11/13 09:00:06;;;;;;;14.40;6.15;;;;;;;;;;5089568;27;20127;-64
2022/11/13 09:02:33;;;;;;;13.30;6.75;;;;;;;;;;5087444;28;20142;-63
2022/11/13 09:04:59;;;;;;;16.98;7.50;;;;;;;;;;5087948;28;20099;-64
2022/11/13 09:07:26;;;;;;;16.17;7.30;;;;;;;;;;5086988;28;20530;-63
2022/11/13 09:09:52;;;;;;;18.25;7.38;;;;;;;;;;5090286;28;20118;-63
2022/11/13 09:12:20;;;;;;;17.15;7.85;;;;;;;;;;5086561;28;20036;-63
2022/11/13 09:14:47;;;;;;;15.90;7.32;;;;;;;;;;5088954;27;20047;-63
2022/11/13 09:17:13;;;;;;;14.82;7.88;;;;;;;;;;5088648;28;20132;-63
2022/11/13 09:19:40;;;;;;;11.93;6.75;;;;;;;;;;5088484;28;20063;-63
2022/11/13 09:22:06;;;;;;;15.90;7.28;;;;;;;;;;5086784;28;21680;-64
2022/11/13 09:24:33;;;;;;;12.70;7.30;;;;;;;;;;5088234;28;20031;-65
2022/11/13 09:27:00;;;;;;;12.43;7.35;;;;;;;;;;5067758;28;20203;-64
2022/11/13 09:29:27;;;;;;;13.38;7.03;;;;;;;;;;5087040;28;20052;-64
2022/11/13 09:31:56;;;;;;;13.32;6.72;;;;;;;;;;5089654;28;20035;-67
2022/11/13 09:34:26;;;;;;;19.55;6.72;;;;;;;;;;5086304;28;20055;-64
2022/11/13 09:36:53;;;;;;;18.17;8.18;;;;;;;;;;5068183;28;20048;-66
2022/11/13 09:39:19;;;;;;;16.75;7.15;;;;;;;;;;5087085;28;20051;-64
2022/11/13 09:41:49;;;;;;;15.05;6.65;;;;;;;;;;5088922;28;20073;-64
2022/11/13 09:44:18;;;;;;;14.18;6.28;;;;;;;;;;5086441;28;20088;-64
2022/11/13 09:46:56;;;;;;;12.55;6.13;;;;;;;;;;5087371;28;20062;-64
2022/11/13 09:49:31;;;;;;;15.98;6.47;;;;;;;;;;5087126;28;20042;-64
2022/11/13 09:51:59;;;;;;;14.05;6.95;;;;;;;;;;5087993;27;20425;-64
2022/11/13 09:54:25;;;;;;;11.63;5.63;;;;;;;;;;5088153;28;20032;-64
2022/11/13 09:57:11;;;;;;;14.52;6.13;;;;;;;;;;5081809;28;20051;-65
2022/11/13 09:59:50;;;;;;;12.82;5.38;;;;;;;;;;5087237;28;20040;-64
2022/11/13 10:02:37;;;;;;;12.15;5.97;;;;;;;;;;5087430;27;20575;-63
2022/11/13 10:05:14;;;;;;;9.93;5.15;;;;;;;;;;5061544;28;20113;-64
2022/11/13 10:07:41;;;;;;;12.77;5.57;;;;;;;;;;5080192;28;20039;-65
2022/11/13 10:10:10;;;;;;;8.40;4.70;;;;;;;;;;5088906;28;21010;-64
2022/11/13 10:12:37;;;;;;;12.02;5.05;;;;;;;;;;5084874;28;20122;-63
2022/11/13 10:15:06;;;;;;;17.75;6.07;;;;;;;;;;5067410;28;20330;-64
2022/11/13 10:17:32;;;;;;;13.55;5.65;;;;;;;;;;5085926;28;20040;-63
2022/11/13 10:19:59;;;;;;;12.52;6.30;;;;;;;;;;5086932;28;20038;-65
2022/11/13 10:22:34;;;;;;;15.55;6.32;;;;;;;;;;5086475;27;20052;-64
2022/11/13 10:25:20;;;;;;;14.45;6.00;;;;;;;;;;5088822;28;20040;-64
2022/11/13 10:28:13;;;;;;;14.07;6.05;;;;;;;;;;5086394;28;20052;-64
2022/11/13 10:30:40;;;;;;;12.10;5.45;;;;;;;;;;5084881;28;20043;-64
2022/11/13 10:33:08;;;;;;;13.63;5.32;;;;;;;;;;5065197;28;20063;-62
2022/11/13 10:35:51;;;;;;;12.23;5.13;;;;;;;;;;5084770;28;20474;-64
2022/11/13 10:38:21;;;;;;;11.70;5.63;;;;;;;;;;5085807;28;20067;-62
2022/11/13 10:40:48;;;;;;;14.65;6.07;;;;;;;;;;5086504;28;20082;-62
2022/11/13 10:43:17;;;;;;;15.95;5.88;;;;;;;;;;5072567;28;21044;-64
2022/11/13 10:45:54;;;;;;;11.98;5.70;;;;;;;;;;5087029;27;20055;-64
2022/11/13 10:48:22;;;;;;;9.20;5.13;;;;;;;;;;5087199;28;20039;-63
2022/11/13 10:50:56;;;;;;;11.05;5.72;;;;;;;;;;5067519;28;20130;-62
2022/11/13 10:53:24;;;;;;;12.10;5.68;;;;;;;;;;5086146;28;20031;-65
2022/11/13 10:55:52;;;;;;;12.98;5.85;;;;;;;;;;5086747;27;20036;-62
2022/11/13 10:58:19;;;;;;;15.23;6.55;;;;;;;;;;5086770;28;20063;-62
2022/11/13 11:00:48;;;;;;;12.98;5.57;;;;;;;;;;5086531;28;20036;-63
2022/11/13 11:03:22;;;;;;;10.68;4.82;;;;;;;;;;5087704;28;20075;-64
2022/11/13 11:05:53;;;;;;;11.55;5.80;;;;;;;;;;5066275;28;20511;-63
2022/11/13 11:08:22;;;;;;;11.23;5.25;;;;;;;;;;5085123;28;20436;-64
2022/11/13 11:13:42;;;;;;;10.20;4.90;;;;;;;;;;5085521;28;20039;-64
2022/11/13 11:16:11;;;;;;;10.00;4.80;;;;;;;;;;5085214;28;20548;-64
2022/11/13 11:19:04;;;;;;;10.60;5.30;;;;;;;;;;5086272;28;20044;-64
2022/11/13 11:21:33;;;;;;;12.98;4.75;;;;;;;;;;5083072;28;20139;-63
2022/11/13 11:24:03;;;;;;;11.68;4.80;;;;;;;;;;5086351;28;20036;-64
2022/11/13 11:26:32;;;;;;;10.50;4.97;;;;;;;;;;5085013;28;20043;-64
2022/11/13 11:28:59;;;;;;;10.88;4.72;;;;;;;;;;5084329;28;20044;-63
2022/11/13 11:31:31;;;;;;;10.45;5.25;;;;;;;;;;5064324;28;20040;-66
2022/11/13 11:34:09;;;;;;;14.52;5.53;;;;;;;;;;5081908;28;20444;-63
2022/11/13 11:37:08;;;;;;;11.05;4.70;;;;;;;;;;5087220;28;20096;-64
2022/11/13 11:39:37;;;;;;;10.35;4.88;;;;;;;;;;5034439;28;20124;-64
2022/11/13 11:42:15;;;;;;;13.40;5.28;;;;;;;;;;5066321;28;20519;-65
2022/11/13 11:45:07;;;;;;;12.02;5.30;;;;;;;;;;5084859;28;20040;-64
2022/11/13 11:47:34;;;;;;;8.52;4.30;;;;;;;;;;5081963;28;20039;-65
2022/11/13 11:50:01;;;;;;;17.35;5.90;;;;;;;;;;5085431;28;20490;-65
2022/11/13 11:52:36;;;;;;;12.02;5.50;;;;;;;;;;5085128;28;20040;-65
2022/11/13 11:55:22;;;;;;;11.18;4.55;;;;;;;;;;5085901;28;20451;-65
2022/11/13 11:57:48;;;;;;;9.82;4.95;;;;;;;;;;5099953;27;20403;-63
2022/11/13 12:00:17;;;;;;;13.88;5.78;;;;;;;;;;5086294;28;20187;-63
2022/11/13 12:02:50;;;;;;;15.85;4.47;;;;;;;;;;5086322;27;20221;-62
2022/11/13 12:05:23;;;;;;;10.13;4.78;;;;;;;;;;5085979;28;20555;-64
2022/11/13 12:07:50;;;;;;;;;;;;;;;;;;5088802;27;20487;-65
2022/11/13 12:10:35;;;;;;;10.18;4.22;;;;;;;;;;5071501;28;20465;-63
2022/11/13 12:13:05;;;;;;;6.72;3.08;;;;;;;;;;5072719;28;20040;-64
2022/11/13 12:15:39;;;;;;;9.18;4.25;;;;;;;;;;5085597;28;20039;-63
2022/11/13 12:18:05;;;;;;;11.50;4.93;;;;;;;;;;5086689;28;20036;-62
2022/11/13 12:20:56;;;;;;;14.18;4.50;;;;;;;;;;5085884;28;20038;-64
2022/11/13 12:23:31;;;;;;;15.02;4.53;;;;;;;;;;5078590;28;20781;-64
2022/11/13 12:26:04;;;;;;;8.57;3.92;;;;;;;;;;5087996;28;20719;-63
2022/11/13 12:28:31;;;;;;;9.32;4.35;;;;;;;;;;5086834;28;20065;-65
2022/11/13 12:31:05;;;;;;;12.32;4.10;;;;;;;;;;5090220;28;20047;-62
2022/11/13 12:33:41;;;;;;;9.65;4.20;;;;;;;;;;5092419;28;20047;-62
2022/11/13 12:36:10;;;;;;;11.88;4.30;;;;;;;;;;5090588;28;20044;-62
2022/11/13 12:38:47;;;;;;;9.73;4.72;;;;;;;;;;5089811;28;20480;-62
2022/11/13 12:41:19;;;;;;;10.75;4.13;;;;;;;;;;5092770;28;20059;-64
2022/11/13 12:43:57;;;;;;;9.45;4.72;;;;;;;;;;5090000;28;20216;-63
2022/11/13 12:46:33;;;;;;;9.80;3.45;;;;;;;;;;5089109;28;20560;-62
2022/11/13 12:48:59;;;;;;;11.90;4.30;;;;;;;;;;5088984;28;20365;-63
2022/11/13 12:51:37;;;;;;;8.75;4.32;;;;;;;;;;5089377;27;20063;-61
2022/11/13 12:54:03;;;;;;;9.45;3.95;;;;;;;;;;5090130;28;20100;-63
2022/11/13 12:56:31;;;;;;;9.88;4.68;;;;;;;;;;5087911;27;20508;-64
2022/11/13 12:59:04;;;;;;;9.43;4.07;;;;;;;;;;5089642;28;20043;-63
2022/11/13 13:01:36;;;;;;;6.10;3.50;;;;;;;;;;5086279;28;20050;-64
2022/11/13 13:04:21;;;;;;;7.82;3.78;;;;;;;;;;5088914;28;20034;-63
2022/11/13 13:07:06;;;;;;;8.82;3.65;;;;;;;;;;5088680;27;20063;-63
2022/11/13 13:09:38;;;;;;;10.45;3.53;;;;;;;;;;5087064;28;20117;-64
2022/11/13 13:12:19;;;;;;;8.57;4.10;;;;;;;;;;5090054;28;20036;-64
2022/11/13 13:14:46;;;;;;;13.05;4.63;;;;;;;;;;5087982;28;20069;-63
2022/11/13 13:17:15;;;;;;;9.63;3.58;;;;;;;;;;5090183;28;20050;-64
2022/11/13 13:19:42;;;;;;;9.65;4.05;;;;;;;;;;5088414;28;20119;-64
2022/11/13 13:22:23;;;;;;;7.68;3.58;;;;;;;;;;5088294;27;20048;-62
2022/11/13 13:24:58;;;;;;;8.13;3.47;;;;;;;;;;5087047;28;20377;-63
2022/11/13 13:27:26;;;;;;;7.97;3.40;;;;;;;;;;5087266;28;20050;-63
2022/11/13 13:29:53;;;;;;;10.15;4.20;;;;;;;;;;5089503;28;20053;-62
2022/11/13 13:32:22;;;;;;;11.23;4.10;;;;;;;;;;5088404;27;20048;-61
2022/11/13 13:34:52;;;;;;;14.63;3.72;;;;;;;;;;5088824;28;20543;-63
2022/11/13 13:37:21;;;;;;;8.57;3.97;;;;;;;;;;5089580;28;20098;-65
2022/11/13 13:40:06;;;;;;;9.60;4.13;;;;;;;;;;5087575;28;20044;-62
2022/11/13 13:42:36;;;;;;;6.38;3.13;;;;;;;;;;5088647;28;20060;-61
2022/11/13 13:45:02;;;;;;;14.80;3.70;;;;;;;;;;5088958;28;20054;-65
2022/11/13 13:47:37;;;;;;;11.05;4.45;;;;;;;;;;5066919;28;20048;-64
2022/11/13 13:50:09;;;;;;;9.68;4.15;;;;;;;;;;5087683;28;20067;-59
2022/11/13 13:52:36;;;;;;;7.25;3.30;;;;;;;;;;5087761;28;20040;-61
2022/11/13 13:55:04;;;;;;;9.73;3.97;;;;;;;;;;5088109;28;20040;-62
2022/11/13 13:57:31;;;;;;;7.95;3.90;;;;;;;;;;5088056;27;20039;-62
2022/11/13 13:59:58;;;;;;;10.13;3.47;;;;;;;;;;5087630;28;20036;-62
2022/11/13 14:02:25;;;;;;;6.78;3.80;;;;;;;;;;5087148;27;20061;-62
2022/11/13 14:04:52;;;;;;;13.38;4.10;;;;;;;;;;5087237;28;20121;-60
2022/11/13 14:07:29;;;;;;;8.68;3.58;;;;;;;;;;5088736;28;20040;-62
2022/11/13 14:10:14;;;;;;;13.02;4.43;;;;;;;;;;5087332;28;20095;-66
2022/11/13 14:12:42;;;;;;;10.30;4.22;;;;;;;;;;5074630;28;20333;-62
2022/11/13 14:15:26;;;;;;;8.88;4.13;;;;;;;;;;5085983;28;20153;-64
2022/11/13 14:18:04;;;;;;;6.97;3.55;;;;;;;;;;5087610;27;20063;-64
2022/11/13 14:20:38;;;;;;;7.50;2.95;;;;;;;;;;5086605;28;20039;-63
2022/11/13 14:23:08;;;;;;;6.85;3.22;;;;;;;;;;5089277;27;20111;-64
2022/11/13 14:25:35;;;;;;;5.82;3.28;;;;;;;;;;5086266;28;20350;-62
2022/11/13 14:28:01;;;;;;;6.47;3.58;;;;;;;;;;5088393;28;20071;-62
2022/11/13 14:30:29;;;;;;;9.45;4.53;;;;;;;;;;5087153;28;20042;-64
2022/11/13 14:32:56;;;;;;;8.15;3.25;;;;;;;;;;5087732;28;20051;-63
2022/11/13 14:35:25;;;;;;;8.57;3.63;;;;;;;;;;5085673;28;20053;-64
2022/11/13 14:37:53;;;;;;;7.47;3.47;;;;;;;;;;5087729;28;20123;-65
2022/11/13 14:40:27;;;;;;;6.47;3.00;;;;;;;;;;5085926;28;20044;-64
2022/11/13 14:42:58;;;;;;;10.77;3.20;;;;;;;;;;5073295;28;20051;-61
2022/11/13 14:45:26;;;;;;;7.25;3.00;;;;;;;;;;5085268;28;20042;-65
2022/11/13 14:47:57;;;;;;;11.20;3.97;;;;;;;;;;5086983;28;20040;-64
2022/11/13 14:50:29;;;;;;;8.80;3.63;;;;;;;;;;5086933;28;20075;-64
2022/11/13 14:53:00;;;;;;;11.60;3.55;;;;;;;;;;5087678;28;20043;-66
2022/11/13 14:55:28;;;;;;;9.23;3.65;;;;;;;;;;5086029;28;20126;-66
2022/11/13 14:57:55;;;;;;;14.77;3.33;;;;;;;;;;5085103;28;20039;-64